createdAt,value
2022-10-17T00:00:37.954Z,99053.84
2022-10-17T00:03:27.258Z,99071.59
2022-10-17T00:05:55.227Z,99069.56
2022-10-17T00:08:23.231Z,99076.78
2022-10-17T00:10:58.394Z,99086.16
2022-10-17T00:13:27.453Z,99079.13
2022-10-17T00:15:55.501Z,99075.91
2022-10-17T00:18:23.574Z,99077.50
2022-10-17T00:20:53.238Z,99073.81
2022-10-17T00:23:21.389Z,99082.25
2022-10-17T00:25:49.151Z,99081.34
2022-10-17T00:28:17.362Z,99075.25
2022-10-17T00:30:45.102Z,99081.38
2022-10-17T00:33:13.074Z,99085.91
2022-10-17T00:35:40.920Z,99082.50
2022-10-17T00:38:10.163Z,99081.69
2022-10-17T00:40:38.042Z,99084.50
2022-10-17T00:43:07.364Z,99086.47
2022-10-17T00:45:35.115Z,99086.06
2022-10-17T00:48:08.443Z,99082.03
2022-10-17T00:50:39.678Z,99078.50
2022-10-17T00:53:10.603Z,99083.19
2022-10-17T00:55:43.274Z,99082.56
2022-10-17T00:58:11.836Z,99086.13
2022-10-17T01:00:39.797Z,99089.19
2022-10-17T01:03:07.838Z,99085.97
2022-10-17T01:05:35.859Z,99090.31
2022-10-17T01:08:04.148Z,99087.28
2022-10-17T01:10:41.575Z,99090.66
2022-10-17T01:13:15.338Z,99082.84
2022-10-17T01:15:53.497Z,99086.97
2022-10-17T01:18:33.609Z,99074.50
2022-10-17T01:21:22.753Z,99084.00
2022-10-17T01:24:20.571Z,99089.47
2022-10-17T01:27:19.265Z,99085.31
2022-10-17T01:30:00.656Z,99087.28
2022-10-17T01:32:35.446Z,99095.53
2022-10-17T01:35:11.284Z,99090.88
2022-10-17T01:37:45.028Z,99094.06
2022-10-17T01:40:21.269Z,99081.19
2022-10-17T01:42:56.656Z,99092.47
2022-10-17T01:45:33.306Z,99090.56
2022-10-17T01:48:08.010Z,99094.44
2022-10-17T01:50:42.245Z,99096.69
2022-10-17T01:53:15.650Z,99089.44
2022-10-17T01:55:47.155Z,99084.75
2022-10-17T01:58:20.261Z,99093.41
2022-10-17T02:00:49.547Z,99084.41
2022-10-17T02:03:21.592Z,99087.44
2022-10-17T02:05:49.644Z,99086.44
2022-10-17T02:08:26.882Z,99084.88
2022-10-17T02:10:59.101Z,99083.91
2022-10-17T02:13:41.910Z,99090.66
2022-10-17T02:16:20.815Z,99091.50
2022-10-17T02:19:02.176Z,99092.63
2022-10-17T02:21:40.942Z,99096.78
2022-10-17T02:24:16.818Z,99099.97
2022-10-17T02:26:51.455Z,99098.66
2022-10-17T02:29:22.765Z,99088.66
2022-10-17T02:31:55.656Z,99098.97
2022-10-17T02:34:28.881Z,99093.72
2022-10-17T02:37:01.229Z,99093.56
2022-10-17T02:39:31.032Z,99096.13
2022-10-17T02:42:02.785Z,99097.09
2022-10-17T02:44:33.424Z,99095.19
2022-10-17T02:47:08.397Z,99084.00
2022-10-17T02:49:41.639Z,99089.75
2022-10-17T02:52:15.255Z,99095.34
2022-10-17T02:54:46.974Z,99092.34
2022-10-17T02:57:19.604Z,99094.25
2022-10-17T02:59:48.625Z,99099.88
2022-10-17T03:02:16.638Z,99101.16
2022-10-17T03:04:46.789Z,99107.09
2022-10-17T03:07:14.924Z,99104.19
2022-10-17T03:09:42.716Z,99113.03
2022-10-17T03:12:10.769Z,99109.97
2022-10-17T03:14:38.573Z,99104.84
2022-10-17T03:17:06.829Z,99108.53
2022-10-17T03:19:34.538Z,99113.84
2022-10-17T03:22:03.767Z,99118.63
2022-10-17T03:24:31.677Z,99121.69
2022-10-17T03:26:59.562Z,99121.22
2022-10-17T03:29:27.297Z,99122.81
2022-10-17T03:31:55.445Z,99126.34
2022-10-17T03:34:23.258Z,99127.97
2022-10-17T03:36:51.317Z,99140.81
2022-10-17T03:39:20.483Z,99143.38
2022-10-17T03:41:48.378Z,99141.09
2022-10-17T03:44:16.706Z,99140.78
2022-10-17T03:46:44.747Z,99142.88
2022-10-17T03:49:12.642Z,99136.44
2022-10-17T03:51:40.549Z,99145.44
2022-10-17T03:54:08.441Z,99146.88
2022-10-17T03:56:37.740Z,99144.97
2022-10-17T03:59:05.673Z,99139.44
2022-10-17T04:01:33.671Z,99147.78
2022-10-17T04:04:01.706Z,99147.44
2022-10-17T04:06:29.777Z,99142.16
2022-10-17T04:08:57.687Z,99142.31
2022-10-17T04:11:25.672Z,99152.28
2022-10-17T04:13:56.446Z,99149.75
2022-10-17T04:16:24.845Z,99161.25
2022-10-17T04:18:55.361Z,99164.31
2022-10-17T04:21:24.639Z,99161.91
2022-10-17T04:23:55.439Z,99167.81
2022-10-17T04:26:23.650Z,99139.44
2022-10-17T04:28:51.984Z,99163.06
2022-10-17T04:31:21.364Z,99161.31
2022-10-17T04:33:50.829Z,99152.44
2022-10-17T04:36:20.877Z,99156.38
2022-10-17T04:38:48.749Z,99160.25
2022-10-17T04:41:18.559Z,99150.28
2022-10-17T04:43:50.140Z,99157.97
2022-10-17T04:46:20.943Z,99147.69
2022-10-17T04:48:48.670Z,99150.53
2022-10-17T04:51:20.686Z,99163.88
2022-10-17T04:53:51.114Z,99166.28
2022-10-17T04:56:21.744Z,99161.94
2022-10-17T04:58:50.065Z,99170.47
2022-10-17T05:01:19.954Z,99177.53
2022-10-17T05:03:49.432Z,99181.50
2022-10-17T05:06:19.498Z,99183.94
2022-10-17T05:08:47.731Z,99186.69
2022-10-17T05:11:20.465Z,99175.63
2022-10-17T05:13:52.097Z,99184.44
2022-10-17T05:16:20.459Z,99179.97
2022-10-17T05:18:52.933Z,99170.31
2022-10-17T05:21:22.797Z,99175.75
2022-10-17T05:23:50.901Z,99166.38
2022-10-17T05:26:19.487Z,99179.88
2022-10-17T05:28:47.854Z,99180.00
2022-10-17T05:31:16.036Z,99182.88
2022-10-17T05:33:43.796Z,99184.00
2022-10-17T05:36:13.109Z,99183.19
2022-10-17T05:38:40.844Z,99181.00
2022-10-17T05:41:08.737Z,99191.78
2022-10-17T05:43:36.649Z,99182.34
2022-10-17T05:46:06.031Z,99195.19
2022-10-17T05:48:34.287Z,99186.88
2022-10-17T05:51:04.510Z,99197.34
2022-10-17T05:53:35.993Z,99196.84
2022-10-17T05:56:07.093Z,99193.56
2022-10-17T05:58:53.251Z,99199.22
2022-10-17T06:01:24.408Z,99222.66
2022-10-17T06:03:52.220Z,99218.50
2022-10-17T06:06:20.646Z,99228.00
2022-10-17T06:08:49.850Z,99243.22
2022-10-17T06:11:17.889Z,99241.47
2022-10-17T06:13:45.658Z,99247.25
2022-10-17T06:16:13.878Z,99245.47
2022-10-17T06:18:41.648Z,99249.47
2022-10-17T06:21:11.389Z,99245.56
2022-10-17T06:23:39.449Z,99253.06
2022-10-17T06:26:08.757Z,99259.56
2022-10-17T06:28:37.483Z,99250.69
2022-10-17T06:31:07.217Z,99259.91
2022-10-17T06:33:35.518Z,99258.03
2022-10-17T06:36:04.056Z,99254.75
2022-10-17T06:38:31.979Z,99252.91
2022-10-17T06:41:08.170Z,99258.66
2022-10-17T06:43:38.047Z,99263.72
2022-10-17T07:13:18.242Z,99294.56
2022-10-17T07:20:56.373Z,99297.66
2022-10-17T07:23:24.809Z,99303.09
2022-10-17T07:36:42.439Z,99301.75
2022-10-17T07:39:10.674Z,99302.28
2022-10-17T07:41:38.462Z,99305.41
2022-10-17T07:44:06.771Z,99303.44
2022-10-17T07:46:34.672Z,99301.16
2022-10-17T07:49:02.741Z,99301.16
2022-10-17T07:51:30.455Z,99299.69
2022-10-17T07:53:59.743Z,99306.09
2022-10-17T07:56:29.513Z,99312.34
2022-10-17T07:58:59.852Z,99309.78
2022-10-17T08:01:30.518Z,99298.91
2022-10-17T08:03:58.720Z,99309.59
2022-10-17T08:06:26.446Z,99307.72
2022-10-17T08:08:54.414Z,99311.69
2022-10-17T08:11:25.259Z,99311.47
2022-10-17T08:13:53.426Z,99327.06
2022-10-17T08:16:21.283Z,99315.88
2022-10-17T08:18:49.162Z,99315.66
2022-10-17T08:21:16.878Z,99314.56
2022-10-17T08:23:44.965Z,99316.97
2022-10-17T08:26:16.788Z,99320.47
2022-10-17T08:28:45.943Z,99316.97
2022-10-17T08:31:16.053Z,99319.38
2022-10-17T08:33:43.957Z,99326.50
2022-10-17T08:36:14.987Z,99329.44
2022-10-17T08:38:43.894Z,99325.75
2022-10-17T08:41:20.036Z,99319.75
2022-10-17T08:44:04.112Z,99321.69
2022-10-17T08:46:35.237Z,99324.06
2022-10-17T08:49:12.049Z,99324.38
2022-10-17T08:51:48.623Z,99315.44
2022-10-17T08:54:20.923Z,99327.69
2022-10-17T08:56:50.496Z,99326.28
2022-10-17T08:59:24.413Z,99320.72
2022-10-17T09:02:01.619Z,99319.66
2022-10-17T09:04:48.741Z,99321.81
2022-10-17T09:07:23.286Z,99325.16
2022-10-17T09:10:01.557Z,99326.00
2022-10-17T09:12:39.546Z,99332.19
2022-10-17T09:15:32.435Z,99331.56
2022-10-17T09:18:04.207Z,99334.97
2022-10-17T09:20:34.902Z,99331.19
2022-10-17T09:23:07.890Z,99330.47
2022-10-17T09:25:43.574Z,99335.00
2022-10-17T09:28:18.252Z,99331.38
2022-10-17T09:30:50.411Z,99338.59
2022-10-17T09:33:34.746Z,99337.13
2022-10-17T09:36:05.951Z,99339.56
2022-10-17T09:38:39.737Z,99339.28
2022-10-17T09:41:43.053Z,99340.56
2022-10-17T09:44:15.546Z,99337.84
2022-10-17T09:46:54.626Z,99341.44
2022-10-17T09:49:29.942Z,99340.66
2022-10-17T09:51:58.529Z,99334.34
2022-10-17T09:54:30.672Z,99337.13
2022-10-17T09:57:00.904Z,99339.91
2022-10-17T09:59:34.900Z,99347.84
2022-10-17T10:02:15.194Z,99340.25
2022-10-17T10:05:09.577Z,99334.97
2022-10-17T10:07:39.628Z,99331.31
2022-10-17T10:10:24.305Z,99334.47
2022-10-17T10:13:05.336Z,99330.84
2022-10-17T10:15:36.988Z,99337.03
2022-10-17T10:21:09.386Z,99338.25
2022-10-17T10:23:40.466Z,99332.16
2022-10-17T10:26:22.731Z,99334.06
2022-10-17T10:28:55.961Z,99325.75
2022-10-17T10:31:30.159Z,99333.53
2022-10-17T10:34:02.821Z,99337.34
2022-10-17T10:36:50.602Z,99332.91
2022-10-17T10:39:33.917Z,99332.03
2022-10-17T10:42:03.546Z,99334.38
2022-10-17T10:44:34.033Z,99327.38
2022-10-17T10:47:10.261Z,99330.59
2022-10-17T10:49:40.521Z,99333.66
2022-10-17T10:52:14.964Z,99323.88
2022-10-17T10:54:51.721Z,99321.81
2022-10-17T10:57:24.133Z,99327.47
2022-10-17T10:59:58.994Z,99319.97
2022-10-17T11:02:31.661Z,99314.03
2022-10-17T11:05:05.049Z,99309.97
2022-10-17T11:07:37.254Z,99313.66
2022-10-17T11:10:15.508Z,99315.25
2022-10-17T11:12:47.640Z,99305.25
2022-10-17T11:15:21.582Z,99305.13
2022-10-17T11:17:58.365Z,99312.63
2022-10-17T11:20:37.669Z,99305.25
2022-10-17T11:23:19.874Z,99309.69
2022-10-17T11:25:50.990Z,99309.66
2022-10-17T11:28:20.964Z,99300.34
2022-10-17T11:30:52.680Z,99309.13
2022-10-17T11:33:26.439Z,99301.38
2022-10-17T11:36:02.106Z,99300.22
2022-10-17T11:38:41.937Z,99292.34
2022-10-17T11:41:13.872Z,99305.44
2022-10-17T11:43:46.974Z,99297.84
2022-10-17T11:46:19.948Z,99296.63
2022-10-17T11:48:58.403Z,99297.38
2022-10-17T11:54:19.915Z,99298.16
2022-10-17T11:56:59.819Z,99290.81
2022-10-17T11:59:54.435Z,99292.91
2022-10-17T12:02:33.941Z,99289.72
2022-10-17T12:05:10.518Z,99291.25
2022-10-17T12:07:46.323Z,99293.91
2022-10-17T12:10:30.737Z,99290.94
2022-10-17T12:12:58.730Z,99287.25
2022-10-17T12:15:31.398Z,99284.34
2022-10-17T12:18:02.584Z,99283.47
2022-10-17T12:20:36.369Z,99282.31
2022-10-17T12:23:24.983Z,99278.13
2022-10-17T12:25:57.004Z,99277.72
2022-10-17T12:28:31.495Z,99272.69
2022-10-17T12:31:00.995Z,99271.69
2022-10-17T12:33:35.492Z,99277.63
2022-10-17T12:36:46.759Z,99270.50
2022-10-17T12:39:49.237Z,99264.31
2022-10-17T12:42:34.478Z,99249.56
2022-10-17T12:45:02.545Z,99261.91
2022-10-17T12:47:39.890Z,99255.72
2022-10-17T12:50:41.988Z,99255.63
2022-10-17T12:53:19.228Z,99259.03
2022-10-17T12:55:51.790Z,99254.69
2022-10-17T12:58:19.685Z,99260.03
2022-10-17T13:01:19.093Z,99256.44
2022-10-17T13:03:45.182Z,99257.81
2022-10-17T13:06:21.761Z,99247.53
2022-10-17T13:09:01.030Z,99249.16
2022-10-17T13:11:35.625Z,99246.00
2022-10-17T13:14:11.669Z,99249.38
2022-10-17T13:16:41.970Z,99239.88
2022-10-17T13:19:16.548Z,99251.81
2022-10-17T13:21:51.354Z,99252.75
2022-10-17T13:24:24.275Z,99255.56
2022-10-17T13:26:53.666Z,99253.25
2022-10-17T13:29:23.399Z,99242.59
2022-10-17T13:31:54.693Z,99247.41
2022-10-17T13:34:24.751Z,99252.19
2022-10-17T13:36:55.129Z,99245.91
2022-10-17T13:39:38.229Z,99245.06
2022-10-17T13:42:24.349Z,99246.38
2022-10-17T13:44:52.957Z,99245.53
2022-10-17T13:47:25.743Z,99247.94
2022-10-17T13:49:55.619Z,99243.97
2022-10-17T13:52:28.078Z,99249.13
2022-10-17T13:55:06.789Z,99251.16
2022-10-17T13:57:36.238Z,99248.31
2022-10-17T14:00:11.491Z,99251.47
2022-10-17T14:02:42.309Z,99245.94
2022-10-17T14:05:19.024Z,99243.53
2022-10-17T14:08:10.655Z,99241.13
2022-10-17T14:10:41.343Z,99245.13
2022-10-17T14:13:21.063Z,99245.16
2022-10-17T14:15:56.022Z,99249.13
2022-10-17T14:18:30.878Z,99239.59
2022-10-17T14:23:53.843Z,99249.47
2022-10-17T14:26:23.945Z,99244.34
2022-10-17T14:29:05.902Z,99252.22
2022-10-17T14:31:35.960Z,99254.19
2022-10-17T14:34:05.921Z,99245.44
2022-10-17T14:36:43.062Z,99238.63
2022-10-17T14:39:21.316Z,99246.50
2022-10-17T14:41:49.598Z,99245.66
2022-10-17T14:44:25.595Z,99243.56
2022-10-17T14:47:05.954Z,99247.13
2022-10-17T14:49:41.997Z,99247.84
2022-10-17T14:52:24.764Z,99241.38
2022-10-17T14:54:53.188Z,99230.22
2022-10-17T14:57:25.390Z,99238.16
2022-10-17T14:59:56.155Z,99241.63
2022-10-17T15:02:25.544Z,99242.78
2022-10-17T15:04:53.679Z,99244.38
2022-10-17T15:07:22.143Z,99246.00
2022-10-17T15:09:53.513Z,99245.63
2022-10-17T15:12:23.480Z,99242.03
2022-10-17T15:14:52.545Z,99240.88
2022-10-17T15:17:25.370Z,99233.44
2022-10-17T15:19:54.140Z,99237.84
2022-10-17T15:22:22.079Z,99237.66
2022-10-17T15:24:50.089Z,99227.53
2022-10-17T15:27:20.415Z,99236.41
2022-10-17T15:29:49.486Z,99233.38
2022-10-17T15:32:17.436Z,99242.19
2022-10-17T15:34:47.168Z,99230.31
2022-10-17T15:37:18.911Z,99242.22
2022-10-17T15:39:53.368Z,99241.44
2022-10-17T15:42:23.496Z,99240.63
2022-10-17T15:44:51.496Z,99243.00
2022-10-17T15:47:26.234Z,99242.13
2022-10-17T15:49:56.428Z,99226.09
2022-10-17T15:52:24.622Z,99240.34
2022-10-17T15:54:52.924Z,99235.78
2022-10-17T15:57:23.598Z,99247.75
2022-10-17T15:59:52.626Z,99243.34
2022-10-17T16:02:21.782Z,99256.09
2022-10-17T16:04:51.084Z,99257.25
2022-10-17T16:07:21.331Z,99263.56
2022-10-17T16:09:49.366Z,99252.69
2022-10-17T16:12:19.107Z,99234.66
2022-10-17T16:14:47.116Z,99249.41
2022-10-17T16:17:16.297Z,99258.72
2022-10-17T16:19:44.854Z,99257.50
2022-10-17T16:22:28.227Z,99254.78
2022-10-17T16:24:59.092Z,99258.13
2022-10-17T16:27:27.174Z,99256.88
2022-10-17T16:29:55.051Z,99262.63
2022-10-17T16:32:22.898Z,99266.19
2022-10-17T16:34:50.758Z,99255.75
2022-10-17T16:37:19.893Z,99261.38
2022-10-17T16:39:52.203Z,99260.31
2022-10-17T16:42:20.104Z,99260.69
2022-10-17T16:44:48.178Z,99260.94
2022-10-17T16:47:16.435Z,99255.22
2022-10-17T16:49:45.362Z,99258.28
2022-10-17T16:52:13.971Z,99259.81
2022-10-17T16:54:43.474Z,99250.31
2022-10-17T16:57:11.362Z,99239.91
2022-10-17T16:59:39.553Z,99249.47
2022-10-17T17:02:07.666Z,99250.72
2022-10-17T17:04:35.610Z,99250.34
2022-10-17T17:07:03.549Z,99238.50
2022-10-17T17:09:31.476Z,99245.09
2022-10-17T17:12:00.581Z,99240.72
2022-10-17T17:14:28.726Z,99235.91
2022-10-17T17:16:56.517Z,99233.69
2022-10-17T17:19:24.439Z,99237.66
2022-10-17T17:21:52.351Z,99235.56
2022-10-17T17:24:21.952Z,99239.22
2022-10-17T17:26:52.439Z,99227.59
2022-10-17T17:29:22.792Z,99229.28
2022-10-17T17:31:51.012Z,99235.59
2022-10-17T17:34:18.920Z,99236.78
2022-10-17T17:36:47.257Z,99236.59
2022-10-17T17:39:16.655Z,99240.63
2022-10-17T17:41:45.567Z,99234.75
2022-10-17T17:44:16.747Z,99243.59
2022-10-17T17:46:46.681Z,99235.75
2022-10-17T17:49:15.394Z,99236.50
2022-10-17T17:51:46.378Z,99235.34
2022-10-17T17:54:14.854Z,99236.50
2022-10-17T17:56:43.000Z,99238.34
2022-10-17T17:59:12.737Z,99234.03
2022-10-17T18:01:40.707Z,99227.31
2022-10-17T18:04:10.729Z,99234.50
2022-10-17T18:06:39.825Z,99229.44
2022-10-17T18:09:09.010Z,99232.19
2022-10-17T18:11:38.065Z,99224.34
2022-10-17T18:14:08.566Z,99232.19
2022-10-17T18:16:37.568Z,99234.50
2022-10-17T18:19:08.785Z,99236.75
2022-10-17T18:21:38.923Z,99241.53
2022-10-17T18:24:07.475Z,99239.16
2022-10-17T18:26:35.705Z,99235.66
2022-10-17T18:29:04.623Z,99230.00
2022-10-17T18:31:35.633Z,99230.81
2022-10-17T18:34:05.276Z,99222.66
2022-10-17T18:36:34.856Z,99230.56
2022-10-17T18:39:05.646Z,99234.75
2022-10-17T18:41:33.986Z,99234.66
2022-10-17T18:44:02.864Z,99235.47
2022-10-17T18:46:35.601Z,99232.59
2022-10-17T18:49:04.365Z,99225.56
2022-10-17T18:51:32.993Z,99225.06
2022-10-17T18:54:02.581Z,99227.97
2022-10-17T18:56:32.768Z,99230.06
2022-10-17T18:59:00.679Z,99228.06
2022-10-17T19:01:29.203Z,99232.25
2022-10-17T19:03:59.467Z,99224.03
2022-10-17T19:06:28.880Z,99222.47
2022-10-17T19:08:56.907Z,99228.28
2022-10-17T19:11:26.762Z,99227.84
2022-10-17T19:13:58.073Z,99221.09
2022-10-17T19:16:30.035Z,99224.28
2022-10-17T19:18:59.824Z,99201.88
2022-10-17T19:21:28.147Z,99220.59
2022-10-17T19:23:58.576Z,99214.09
2022-10-17T19:26:27.972Z,99217.44
2022-10-17T19:28:57.369Z,99217.56
2022-10-17T19:31:27.396Z,99220.19
2022-10-17T19:33:56.387Z,99221.09
2022-10-17T19:36:29.056Z,99223.03
2022-10-17T19:39:01.440Z,99221.41
2022-10-17T19:41:29.422Z,99222.44
2022-10-17T19:43:58.979Z,99223.34
2022-10-17T19:46:28.307Z,99215.56
2022-10-17T19:48:56.842Z,99229.47
2022-10-17T19:51:26.218Z,99229.03
2022-10-17T19:53:56.234Z,99221.94
2022-10-17T19:56:25.639Z,99227.69
2022-10-17T19:58:55.641Z,99229.53
2022-10-17T20:01:26.674Z,99231.56
2022-10-17T20:03:55.169Z,99231.94
2022-10-17T20:06:23.373Z,99225.66
2022-10-17T20:08:51.657Z,99227.72
2022-10-17T20:11:21.813Z,99233.44
2022-10-17T20:13:50.606Z,99229.44
2022-10-17T20:16:21.436Z,99226.38
2022-10-17T20:18:51.893Z,99236.66
2022-10-17T20:21:23.370Z,99241.47
2022-10-17T20:23:51.597Z,99231.38
2022-10-17T20:26:38.670Z,99225.41
2022-10-17T20:29:11.083Z,99229.09
2022-10-17T20:31:40.112Z,99231.16
2022-10-17T20:34:12.509Z,99229.31
2022-10-17T20:36:40.077Z,99220.19
2022-10-17T20:39:08.917Z,99227.28
2022-10-17T20:41:37.116Z,99220.41
2022-10-17T20:44:06.765Z,99230.16
2022-10-17T20:46:37.655Z,99233.91
2022-10-17T20:49:07.772Z,99228.06
2022-10-17T20:51:36.901Z,99222.47
2022-10-17T20:54:05.701Z,99217.19
2022-10-17T20:56:35.290Z,99218.78
2022-10-17T20:59:05.709Z,99224.53
2022-10-17T21:01:36.144Z,99221.91
2022-10-17T21:06:54.462Z,99217.69
2022-10-17T21:09:22.865Z,99214.00
2022-10-17T21:11:54.886Z,99218.81
2022-10-17T21:14:24.117Z,99217.88
2022-10-17T21:16:53.050Z,99207.84
2022-10-17T21:19:22.270Z,99211.25
2022-10-17T21:21:50.845Z,99201.88
2022-10-17T21:24:20.835Z,99202.22
2022-10-17T21:26:55.365Z,99199.31
2022-10-17T21:29:24.637Z,99197.25
2022-10-17T21:31:52.476Z,99204.53
2022-10-17T21:34:22.105Z,99194.16
2022-10-17T21:36:50.405Z,99192.34
2022-10-17T21:39:20.054Z,99198.72
2022-10-17T21:41:47.766Z,99191.78
2022-10-17T21:44:17.845Z,99197.06
2022-10-17T21:46:46.285Z,99189.91
2022-10-17T21:49:16.386Z,99191.25
2022-10-17T21:51:45.194Z,99187.84
2022-10-17T21:54:13.304Z,99184.31
2022-10-17T21:56:42.593Z,99183.03
2022-10-17T21:59:11.763Z,99186.56
2022-10-17T22:01:41.196Z,99174.50
2022-10-17T22:04:13.160Z,99173.69
2022-10-17T22:06:43.028Z,99174.84
2022-10-17T22:09:14.146Z,99171.81
2022-10-17T22:11:46.077Z,99176.78
2022-10-17T22:14:15.963Z,99183.75
2022-10-17T22:16:44.984Z,99169.00
2022-10-17T22:19:14.341Z,99173.81
2022-10-17T22:21:42.264Z,99167.28
2022-10-17T22:24:13.771Z,99167.41
2022-10-17T22:26:44.481Z,99164.81
2022-10-17T22:29:13.513Z,99163.41
2022-10-17T22:31:41.670Z,99164.22
2022-10-17T22:34:11.345Z,99153.16
2022-10-17T22:36:39.192Z,99157.09
2022-10-17T22:39:07.473Z,99148.47
2022-10-17T22:41:35.236Z,99153.94
2022-10-17T22:44:05.330Z,99152.59
2022-10-17T22:46:33.574Z,99148.88
2022-10-17T22:49:01.568Z,99151.22
2022-10-17T22:51:29.677Z,99146.00
2022-10-17T22:53:57.741Z,99146.19
2022-10-17T22:56:25.840Z,99135.09
2022-10-17T22:58:54.025Z,99147.94
2022-10-17T23:01:24.927Z,99147.66
2022-10-17T23:03:53.925Z,99155.13
2022-10-17T23:06:22.125Z,99142.50
2022-10-17T23:08:50.543Z,99140.91
2022-10-17T23:11:18.682Z,99136.59
2022-10-17T23:13:46.660Z,99138.72
2022-10-17T23:16:14.720Z,99139.06
2022-10-17T23:18:44.615Z,99146.97
2022-10-17T23:21:12.890Z,99138.16
2022-10-17T23:23:40.824Z,99138.16
2022-10-17T23:26:10.798Z,99127.59
2022-10-17T23:28:39.454Z,99135.91
2022-10-17T23:31:15.442Z,99135.22
2022-10-17T23:33:46.581Z,99127.84
2022-10-17T23:36:16.053Z,99120.75
2022-10-17T23:38:45.581Z,99124.16
2022-10-17T23:41:14.126Z,99127.06
2022-10-17T23:43:42.111Z,99121.44
2022-10-17T23:46:10.177Z,99129.63
2022-10-17T23:48:38.895Z,99122.91
2022-10-17T23:51:08.662Z,99120.31
2022-10-17T23:53:37.088Z,99114.16
2022-10-17T23:56:05.849Z,99119.63
2022-10-17T23:58:33.773Z,99107.19
